createdAt,value
2022-12-11T00:01:14.283Z,42.69
2022-12-11T00:03:43.149Z,42.69
2022-12-11T00:06:15.016Z,42.62
2022-12-11T00:08:44.136Z,42.79
2022-12-11T00:11:14.225Z,42.72
2022-12-11T00:13:43.006Z,42.72
2022-12-11T00:16:12.394Z,42.68
2022-12-11T00:18:41.151Z,42.77
2022-12-11T00:21:14.595Z,42.69
2022-12-11T00:23:43.590Z,42.99
2022-12-11T00:26:15.726Z,42.84
2022-12-11T00:28:45.239Z,42.92
2022-12-11T00:31:15.977Z,42.79
2022-12-11T00:33:45.026Z,42.62
2022-12-11T00:36:17.130Z,42.68
2022-12-11T00:38:45.689Z,42.67
2022-12-11T00:41:14.153Z,42.69
2022-12-11T00:43:42.919Z,42.64
2022-12-11T00:46:11.579Z,42.70
2022-12-11T00:48:40.407Z,42.47
2022-12-11T00:51:09.018Z,42.43
2022-12-11T00:53:39.084Z,42.63
2022-12-11T00:56:12.524Z,42.65
2022-12-11T00:58:41.101Z,42.61
2022-12-11T01:01:11.234Z,42.45
2022-12-11T01:03:39.852Z,42.46
2022-12-11T01:06:09.587Z,42.45
2022-12-11T01:08:39.439Z,42.52
2022-12-11T01:11:10.068Z,42.47
2022-12-11T01:13:39.584Z,42.61
2022-12-11T01:16:09.837Z,42.29
2022-12-11T01:18:38.719Z,42.30
2022-12-11T01:21:08.151Z,42.30
2022-12-11T01:23:37.227Z,42.29
2022-12-11T01:26:08.850Z,42.25
2022-12-11T01:28:37.698Z,42.25
2022-12-11T01:31:09.938Z,42.44
2022-12-11T01:33:38.783Z,42.39
2022-12-11T01:36:11.492Z,42.60
2022-12-11T01:38:40.029Z,42.28
2022-12-11T01:41:10.763Z,42.24
2022-12-11T01:43:57.711Z,42.50
2022-12-11T01:46:26.973Z,42.40
2022-12-11T01:48:56.765Z,42.38
2022-12-11T01:51:25.675Z,42.53
2022-12-11T01:53:59.976Z,42.28
2022-12-11T01:56:33.367Z,42.08
2022-12-11T01:59:07.304Z,42.21
2022-12-11T02:01:40.626Z,42.40
2022-12-11T02:04:10.938Z,42.33
2022-12-11T02:06:41.394Z,42.19
2022-12-11T02:09:13.073Z,42.25
2022-12-11T02:11:53.856Z,42.22
2022-12-11T02:14:30.523Z,42.13
2022-12-11T02:17:05.647Z,42.32
2022-12-11T02:19:46.348Z,42.19
2022-12-11T02:22:22.871Z,42.17
2022-12-11T02:25:04.371Z,42.18
2022-12-11T02:27:39.086Z,41.95
2022-12-11T02:30:11.399Z,42.24
2022-12-11T02:32:44.347Z,42.12
2022-12-11T02:35:18.996Z,42.16
2022-12-11T02:37:50.013Z,42.17
2022-12-11T02:40:22.612Z,41.99
2022-12-11T02:42:53.168Z,42.15
2022-12-11T02:45:25.295Z,42.12
2022-12-11T02:47:54.043Z,42.18
2022-12-11T02:50:24.413Z,42.05
2022-12-11T02:52:56.793Z,41.89
2022-12-11T02:55:28.251Z,42.02
2022-12-11T02:58:03.290Z,42.09
2022-12-11T03:00:33.342Z,42.04
2022-12-11T03:03:03.221Z,41.84
2022-12-11T03:05:32.453Z,41.98
2022-12-11T03:08:00.954Z,42.10
2022-12-11T03:10:29.424Z,41.88
2022-12-11T03:13:00.241Z,42.04
2022-12-11T03:15:35.927Z,41.88
2022-12-11T03:18:10.399Z,41.82
2022-12-11T03:20:42.320Z,41.88
2022-12-11T03:23:21.063Z,41.89
2022-12-11T03:25:55.316Z,41.87
2022-12-11T03:28:30.339Z,41.75
2022-12-11T03:31:05.444Z,42.00
2022-12-11T03:33:37.389Z,41.73
2022-12-11T03:36:10.886Z,41.82
2022-12-11T03:38:45.374Z,41.82
2022-12-11T03:41:18.060Z,42.08
2022-12-11T03:43:47.746Z,41.75
2022-12-11T03:46:19.268Z,41.61
2022-12-11T03:48:50.626Z,41.68
2022-12-11T03:51:19.416Z,41.76
2022-12-11T03:53:48.816Z,41.88
2022-12-11T03:56:20.556Z,41.75
2022-12-11T03:58:49.016Z,41.53
2022-12-11T04:01:19.302Z,41.50
2022-12-11T04:03:47.737Z,41.74
2022-12-11T04:06:16.179Z,41.67
2022-12-11T04:08:44.587Z,41.62
2022-12-11T04:11:30.459Z,41.43
2022-12-11T04:14:16.460Z,41.51
2022-12-11T04:16:46.267Z,41.45
2022-12-11T04:19:32.432Z,41.50
2022-12-11T04:22:18.691Z,41.60
2022-12-11T04:24:48.847Z,41.54
2022-12-11T04:27:38.168Z,41.42
2022-12-11T04:30:11.468Z,41.52
2022-12-11T04:32:41.369Z,41.41
2022-12-11T04:35:11.141Z,41.38
2022-12-11T04:37:40.231Z,41.46
2022-12-11T04:40:11.654Z,41.43
2022-12-11T04:42:40.056Z,41.45
2022-12-11T04:45:10.159Z,41.45
2022-12-11T04:47:41.985Z,41.47
2022-12-11T04:50:12.818Z,41.47
2022-12-11T04:52:41.418Z,41.35
2022-12-11T04:55:11.249Z,41.41
2022-12-11T04:57:39.894Z,41.41
2022-12-11T05:00:11.947Z,41.30
2022-12-11T05:02:43.327Z,41.36
2022-12-11T05:05:13.052Z,41.21
2022-12-11T05:07:42.006Z,41.14
2022-12-11T05:10:11.248Z,41.39
2022-12-11T05:12:39.944Z,41.23
2022-12-11T05:15:09.785Z,41.28
2022-12-11T05:17:38.880Z,41.34
2022-12-11T05:20:10.470Z,41.00
2022-12-11T05:22:39.460Z,41.13
2022-12-11T05:25:08.980Z,40.97
2022-12-11T05:27:37.786Z,41.24
2022-12-11T05:30:07.478Z,41.03
2022-12-11T05:32:35.867Z,41.09
2022-12-11T05:35:04.678Z,41.14
2022-12-11T05:37:35.516Z,41.13
2022-12-11T05:40:06.159Z,41.09
2022-12-11T05:42:34.674Z,41.07
2022-12-11T05:45:03.438Z,41.00
2022-12-11T05:47:32.468Z,40.99
2022-12-11T05:50:00.851Z,40.75
2022-12-11T05:52:29.283Z,40.55
2022-12-11T05:54:59.093Z,40.36
2022-12-11T05:57:27.479Z,40.06
2022-12-11T05:59:55.957Z,40.08
2022-12-11T06:02:24.522Z,39.99
2022-12-11T06:04:52.974Z,39.77
2022-12-11T06:07:21.417Z,39.74
2022-12-11T06:09:49.791Z,39.28
2022-12-11T06:12:19.746Z,39.09
2022-12-11T06:14:48.155Z,39.34
2022-12-11T06:17:16.606Z,39.30
2022-12-11T06:19:44.969Z,39.09
2022-12-11T06:22:13.361Z,39.08
2022-12-11T06:24:41.776Z,39.06
2022-12-11T06:27:10.226Z,39.28
2022-12-11T06:29:40.040Z,39.03
2022-12-11T06:32:08.504Z,39.04
2022-12-11T06:34:36.932Z,39.28
2022-12-11T06:37:05.464Z,38.99
2022-12-11T06:39:33.939Z,39.30
2022-12-11T06:42:02.398Z,38.83
2022-12-11T06:44:30.865Z,39.07
2022-12-11T06:47:00.711Z,38.87
2022-12-11T06:49:29.224Z,38.79
2022-12-11T06:51:58.525Z,38.71
2022-12-11T06:54:27.735Z,39.03
2022-12-11T06:56:56.231Z,38.87
2022-12-11T06:59:24.819Z,38.98
2022-12-11T07:01:53.266Z,38.90
2022-12-11T07:04:24.639Z,38.65
2022-12-11T07:06:53.348Z,38.58
2022-12-11T07:09:22.831Z,38.66
2022-12-11T07:11:51.640Z,38.76
2022-12-11T07:14:20.317Z,38.96
2022-12-11T07:16:48.818Z,38.77
2022-12-11T07:19:17.556Z,38.88
2022-12-11T07:21:47.400Z,38.63
2022-12-11T07:24:15.884Z,38.77
2022-12-11T07:26:44.344Z,38.45
2022-12-11T07:29:12.769Z,38.43
2022-12-11T07:31:41.241Z,38.54
2022-12-11T07:34:12.679Z,37.45
2022-12-11T07:36:41.175Z,36.68
2022-12-11T07:39:12.531Z,36.81
2022-12-11T07:41:41.069Z,36.66
2022-12-11T07:44:12.647Z,36.60
2022-12-11T07:46:41.351Z,36.84
2022-12-11T07:49:09.759Z,37.19
2022-12-11T07:51:39.393Z,37.39
2022-12-11T07:54:11.967Z,37.31
2022-12-11T07:56:43.899Z,37.66
2022-12-11T07:59:12.731Z,37.39
2022-12-11T08:01:42.112Z,37.38
2022-12-11T08:04:15.406Z,37.74
2022-12-11T08:06:44.195Z,37.67
2022-12-11T08:09:21.074Z,37.42
2022-12-11T08:11:51.779Z,37.40
2022-12-11T08:14:20.739Z,37.60
2022-12-11T08:16:49.535Z,37.40
2022-12-11T08:19:18.127Z,37.33
2022-12-11T08:21:46.813Z,37.39
2022-12-11T08:24:16.434Z,37.64
2022-12-11T08:26:46.767Z,37.38
2022-12-11T08:29:16.538Z,37.30
2022-12-11T08:31:45.263Z,37.39
2022-12-11T08:34:14.146Z,37.24
2022-12-11T08:36:43.839Z,37.37
2022-12-11T08:39:12.325Z,37.46
2022-12-11T08:41:40.782Z,37.05
2022-12-11T08:44:16.286Z,37.28
2022-12-11T08:46:46.859Z,37.27
2022-12-11T08:49:15.305Z,37.22
2022-12-11T08:51:43.714Z,37.39
2022-12-11T08:54:12.340Z,37.03
2022-12-11T08:56:40.900Z,37.05
2022-12-11T08:59:09.358Z,37.12
2022-12-11T09:01:37.854Z,37.28
2022-12-11T09:04:07.727Z,36.97
2022-12-11T09:06:36.163Z,37.02
2022-12-11T09:09:05.127Z,37.32
2022-12-11T09:11:36.803Z,36.99
2022-12-11T09:14:07.831Z,37.32
2022-12-11T09:16:40.134Z,36.95
2022-12-11T09:19:13.644Z,36.89
2022-12-11T09:21:43.548Z,36.89
2022-12-11T09:24:13.493Z,37.04
2022-12-11T09:26:42.617Z,37.21
2022-12-11T09:29:12.947Z,37.25
2022-12-11T09:31:41.452Z,37.05
2022-12-11T09:34:13.341Z,37.11
2022-12-11T09:36:44.042Z,37.11
2022-12-11T09:39:14.132Z,36.96
2022-12-11T09:41:52.871Z,37.28
2022-12-11T09:44:31.687Z,36.91
2022-12-11T09:47:00.597Z,36.88
2022-12-11T09:49:36.280Z,36.83
2022-12-11T09:52:13.642Z,36.91
2022-12-11T09:54:48.811Z,37.04
2022-12-11T09:57:33.239Z,37.09
2022-12-11T10:00:11.330Z,36.93
2022-12-11T10:03:03.663Z,36.82
2022-12-11T10:05:43.761Z,36.72
2022-12-11T10:08:15.456Z,36.70
2022-12-11T10:10:52.594Z,36.93
2022-12-11T10:13:29.140Z,36.67
2022-12-11T10:16:05.047Z,36.95
2022-12-11T10:18:34.871Z,36.87
2022-12-11T10:21:05.540Z,36.51
2022-12-11T10:23:39.667Z,36.92
2022-12-11T10:26:12.142Z,36.85
2022-12-11T10:28:40.823Z,36.64
2022-12-11T10:31:17.002Z,36.89
2022-12-11T10:33:56.068Z,36.89
2022-12-11T10:36:32.465Z,36.53
2022-12-11T10:39:01.187Z,36.85
2022-12-11T10:41:39.078Z,36.96
2022-12-11T10:44:18.680Z,37.05
2022-12-11T10:46:48.911Z,37.22
2022-12-11T10:49:26.102Z,37.17
2022-12-11T10:51:57.088Z,37.43
2022-12-11T10:54:33.002Z,37.49
2022-12-11T10:57:04.170Z,37.56
2022-12-11T10:59:37.519Z,37.56
2022-12-11T11:02:08.610Z,38.38
2022-12-11T11:04:38.847Z,38.20
2022-12-11T11:07:15.373Z,38.52
2022-12-11T11:09:44.367Z,38.39
2022-12-11T11:12:21.506Z,38.51
2022-12-11T11:15:00.656Z,38.91
2022-12-11T11:17:33.830Z,38.80
2022-12-11T11:20:14.193Z,38.52
2022-12-11T11:22:46.728Z,38.73
2022-12-11T11:25:20.854Z,38.59
2022-12-11T11:27:52.405Z,38.89
2022-12-11T11:30:23.930Z,38.89
2022-12-11T11:32:55.345Z,39.23
2022-12-11T11:35:26.542Z,39.21
2022-12-11T11:38:03.350Z,38.94
2022-12-11T11:40:35.050Z,39.08
2022-12-11T11:43:14.049Z,38.65
2022-12-11T11:45:47.710Z,38.60
2022-12-11T11:48:29.576Z,38.70
2022-12-11T11:50:59.332Z,38.95
2022-12-11T11:53:32.912Z,38.79
2022-12-11T11:56:07.013Z,38.73
2022-12-11T11:58:40.553Z,38.54
2022-12-11T12:01:15.689Z,38.58
2022-12-11T12:03:44.743Z,38.77
2022-12-11T12:06:26.824Z,38.64
2022-12-11T12:09:13.031Z,38.65
2022-12-11T12:11:47.531Z,38.37
2022-12-11T12:14:51.193Z,38.61
2022-12-11T12:17:20.934Z,38.39
2022-12-11T12:19:55.970Z,38.39
2022-12-11T12:22:43.500Z,38.40
2022-12-11T12:25:23.195Z,38.65
2022-12-11T12:27:59.431Z,38.20
2022-12-11T12:30:37.870Z,38.38
2022-12-11T12:33:23.810Z,38.52
2022-12-11T12:36:06.553Z,38.42
2022-12-11T12:38:48.501Z,38.43
2022-12-11T12:41:23.386Z,38.35
2022-12-11T12:44:04.642Z,38.40
2022-12-11T12:46:45.893Z,38.40
2022-12-11T12:49:21.406Z,39.16
2022-12-11T12:51:52.341Z,39.47
2022-12-11T12:54:22.282Z,39.57
2022-12-11T12:56:52.323Z,39.81
2022-12-11T12:59:23.195Z,39.75
2022-12-11T13:01:56.907Z,39.80
2022-12-11T13:04:55.888Z,40.17
2022-12-11T13:07:29.838Z,39.98
2022-12-11T13:10:06.529Z,39.48
2022-12-11T13:12:43.435Z,39.13
2022-12-11T13:15:30.261Z,38.49
2022-12-11T13:17:59.683Z,39.20
2022-12-11T13:20:30.335Z,39.61
2022-12-11T13:23:19.029Z,39.55
2022-12-11T13:25:51.461Z,39.42
2022-12-11T13:28:28.327Z,39.76
2022-12-11T13:31:31.145Z,39.77
2022-12-11T13:34:10.267Z,39.74
2022-12-11T13:36:41.496Z,39.53
2022-12-11T13:39:19.059Z,39.73
2022-12-11T13:41:49.702Z,39.32
2022-12-11T13:44:25.627Z,39.09
2022-12-11T13:46:57.299Z,39.47
2022-12-11T13:49:28.945Z,39.97
2022-12-11T13:51:59.426Z,39.82
2022-12-11T13:54:31.613Z,39.89
2022-12-11T13:57:03.194Z,39.54
2022-12-11T13:59:35.566Z,39.16
2022-12-11T14:02:16.045Z,39.88
2022-12-11T14:04:45.162Z,39.97
2022-12-11T14:07:13.928Z,39.65
2022-12-11T14:09:45.416Z,39.40
2022-12-11T14:12:19.115Z,39.48
2022-12-11T14:14:52.554Z,39.82
2022-12-11T14:17:25.801Z,39.46
2022-12-11T14:19:55.593Z,39.78
2022-12-11T14:22:26.007Z,40.16
2022-12-11T14:24:56.521Z,39.88
2022-12-11T14:27:27.285Z,39.57
2022-12-11T14:29:57.559Z,39.44
2022-12-11T14:32:33.097Z,39.63
2022-12-11T14:35:05.386Z,39.90
2022-12-11T14:37:35.988Z,39.78
2022-12-11T14:40:10.435Z,39.60
2022-12-11T14:42:41.965Z,39.95
2022-12-11T14:45:20.807Z,39.04
2022-12-11T14:47:50.201Z,38.75
2022-12-11T14:50:22.286Z,38.82
2022-12-11T14:52:54.370Z,38.82
2022-12-11T14:55:27.042Z,39.22
2022-12-11T14:57:59.893Z,38.99
2022-12-11T15:00:32.137Z,39.08
2022-12-11T15:03:03.141Z,39.08
2022-12-11T15:05:38.835Z,39.49
2022-12-11T15:08:24.727Z,39.62
2022-12-11T15:11:04.042Z,39.32
2022-12-11T15:13:33.967Z,39.51
2022-12-11T15:16:05.272Z,39.49
2022-12-11T15:18:37.075Z,39.71
2022-12-11T15:21:09.485Z,39.91
2022-12-11T15:23:50.400Z,39.64
2022-12-11T15:26:19.848Z,39.17
2022-12-11T15:28:48.659Z,39.30
2022-12-11T15:31:29.777Z,39.29
2022-12-11T15:33:58.330Z,39.02
2022-12-11T15:36:34.223Z,39.19
2022-12-11T15:39:03.930Z,39.19
2022-12-11T15:41:34.529Z,39.07
2022-12-11T15:44:04.936Z,38.90
2022-12-11T15:46:38.147Z,39.20
2022-12-11T15:49:12.208Z,38.99
2022-12-11T15:51:43.092Z,39.00
2022-12-11T15:54:12.134Z,39.01
2022-12-11T15:56:40.889Z,39.25
2022-12-11T15:59:11.551Z,39.10
2022-12-11T16:01:41.408Z,39.17
2022-12-11T16:04:09.874Z,38.94
2022-12-11T16:06:38.360Z,39.24
2022-12-11T16:09:06.840Z,39.22
2022-12-11T16:11:35.263Z,39.09
2022-12-11T16:14:04.490Z,39.19
2022-12-11T16:16:33.411Z,39.16
2022-12-11T16:19:03.329Z,39.10
2022-12-11T16:21:31.810Z,38.84
2022-12-11T16:24:00.177Z,38.65
2022-12-11T16:26:28.985Z,38.91
2022-12-11T16:29:00.552Z,38.82
2022-12-11T16:31:29.869Z,38.76
2022-12-11T16:33:58.679Z,38.81
2022-12-11T16:36:28.665Z,38.50
2022-12-11T16:38:57.085Z,38.31
2022-12-11T16:41:27.849Z,38.29
2022-12-11T16:43:56.271Z,38.26
2022-12-11T16:46:25.966Z,38.03
2022-12-11T16:48:54.621Z,37.46
2022-12-11T16:51:23.143Z,37.34
2022-12-11T16:53:52.914Z,37.16
2022-12-11T16:56:21.391Z,37.24
2022-12-11T16:58:49.847Z,37.00
2022-12-11T17:01:18.399Z,36.55
2022-12-11T17:03:46.998Z,36.56
2022-12-11T17:06:18.255Z,36.67
2022-12-11T17:08:46.943Z,37.75
2022-12-11T17:11:19.618Z,37.71
2022-12-11T17:13:48.682Z,38.11
2022-12-11T17:16:18.014Z,38.35
2022-12-11T17:18:46.464Z,38.65
2022-12-11T17:21:17.605Z,39.21
2022-12-11T17:23:46.563Z,39.14
2022-12-11T17:26:16.637Z,38.90
2022-12-11T17:28:45.569Z,38.41
2022-12-11T17:31:16.721Z,38.11
2022-12-11T17:33:45.760Z,38.26
2022-12-11T17:36:16.418Z,38.93
2022-12-11T17:38:45.393Z,39.10
2022-12-11T17:41:20.497Z,38.75
2022-12-11T17:43:49.746Z,38.29
2022-12-11T17:46:19.497Z,37.72
2022-12-11T17:48:48.585Z,37.20
2022-12-11T17:51:21.844Z,37.31
2022-12-11T17:53:50.670Z,36.99
2022-12-11T17:56:20.506Z,36.90
2022-12-11T17:58:49.017Z,36.34
2022-12-11T18:01:18.031Z,36.54
2022-12-11T18:03:46.846Z,36.20
2022-12-11T18:06:17.134Z,36.58
2022-12-11T18:08:46.202Z,36.88
2022-12-11T18:11:17.350Z,37.04
2022-12-11T18:13:47.219Z,36.79
2022-12-11T18:16:17.881Z,37.22
2022-12-11T18:18:47.024Z,37.14
2022-12-11T18:21:17.831Z,37.45
2022-12-11T18:23:46.692Z,37.37
2022-12-11T18:26:15.491Z,37.37
2022-12-11T18:28:44.987Z,37.53
2022-12-11T18:31:15.602Z,37.58
2022-12-11T18:33:45.436Z,37.56
2022-12-11T18:36:15.800Z,37.77
2022-12-11T18:38:45.406Z,38.02
2022-12-11T18:41:14.459Z,38.30
2022-12-11T18:43:43.525Z,38.33
2022-12-11T18:46:15.046Z,39.13
2022-12-11T18:48:44.387Z,39.18
2022-12-11T18:51:14.986Z,38.77
2022-12-11T18:53:45.245Z,39.02
2022-12-11T18:56:16.575Z,39.87
2022-12-11T18:58:45.758Z,40.74
2022-12-11T19:01:19.082Z,40.92
2022-12-11T19:03:47.912Z,41.72
2022-12-11T19:06:18.452Z,41.88
2022-12-11T19:08:47.197Z,42.33
2022-12-11T19:11:16.862Z,42.25
2022-12-11T19:13:46.568Z,42.68
2022-12-11T19:16:22.100Z,42.58
2022-12-11T19:18:51.032Z,43.22
2022-12-11T19:21:19.975Z,43.68
2022-12-11T19:23:49.320Z,43.82
2022-12-11T19:26:20.139Z,44.21
2022-12-11T19:28:50.515Z,43.67
2022-12-11T19:31:22.376Z,43.72
2022-12-11T19:33:51.516Z,43.28
2022-12-11T19:36:21.658Z,43.59
2022-12-11T19:38:50.691Z,43.63
2022-12-11T19:41:21.540Z,43.41
2022-12-11T19:43:50.522Z,43.78
2022-12-11T19:46:21.415Z,43.78
2022-12-11T19:48:50.581Z,43.90
2022-12-11T19:51:21.044Z,43.37
2022-12-11T19:53:50.483Z,43.53
2022-12-11T19:56:20.747Z,43.47
2022-12-11T19:58:49.735Z,43.51
2022-12-11T20:01:25.674Z,43.76
2022-12-11T20:03:55.306Z,43.46
2022-12-11T20:06:24.565Z,43.90
2022-12-11T20:08:53.166Z,43.75
2022-12-11T20:11:21.746Z,43.61
2022-12-11T20:13:50.632Z,43.49
2022-12-11T20:16:39.124Z,43.31
2022-12-11T20:19:10.562Z,42.95
2022-12-11T20:21:39.002Z,43.03
2022-12-11T20:24:08.016Z,43.29
2022-12-11T20:26:38.082Z,43.20
2022-12-11T20:29:08.358Z,43.04
2022-12-11T20:31:37.683Z,42.65
2022-12-11T20:34:07.494Z,42.74
2022-12-11T20:36:37.276Z,42.64
2022-12-11T20:39:06.032Z,42.42
2022-12-11T20:41:34.480Z,42.87
2022-12-11T20:44:02.918Z,42.56
2022-12-11T20:46:31.510Z,42.48
2022-12-11T20:48:59.939Z,42.25
2022-12-11T20:51:29.086Z,42.67
2022-12-11T20:53:59.798Z,42.64
2022-12-11T20:56:30.262Z,42.37
2022-12-11T20:59:00.507Z,42.55
2022-12-11T21:01:31.755Z,42.57
2022-12-11T21:04:00.628Z,42.37
2022-12-11T21:06:31.654Z,42.80
2022-12-11T21:09:03.219Z,42.24
2022-12-11T21:11:32.063Z,42.38
2022-12-11T21:14:00.949Z,42.65
2022-12-11T21:16:29.666Z,42.25
2022-12-11T21:18:59.126Z,42.33
2022-12-11T21:21:27.823Z,42.39
2022-12-11T21:23:56.251Z,42.56
2022-12-11T21:26:26.144Z,42.60
2022-12-11T21:28:54.859Z,42.50
2022-12-11T21:31:23.361Z,42.43
2022-12-11T21:33:52.073Z,42.60
2022-12-11T21:36:20.500Z,42.36
2022-12-11T21:38:49.611Z,42.60
2022-12-11T21:41:20.794Z,42.78
2022-12-11T21:44:56.523Z,42.96
2022-12-11T21:46:41.604Z,42.65
2022-12-11T21:49:10.063Z,42.75
2022-12-11T21:51:46.740Z,42.82
2022-12-11T21:54:18.770Z,43.10
2022-12-11T21:56:48.095Z,43.27
2022-12-11T21:59:17.925Z,42.92
2022-12-11T22:01:47.003Z,42.82
2022-12-11T22:04:16.622Z,43.04
2022-12-11T22:06:47.240Z,43.19
2022-12-11T22:09:17.720Z,43.20
2022-12-11T22:11:47.279Z,43.44
2022-12-11T22:14:18.658Z,43.14
2022-12-11T22:16:47.611Z,43.29
2022-12-11T22:19:16.143Z,43.39
2022-12-11T22:21:44.538Z,43.38
2022-12-11T22:24:14.079Z,43.59
2022-12-11T22:26:42.607Z,43.49
2022-12-11T22:29:11.146Z,43.51
2022-12-11T22:31:40.953Z,43.56
2022-12-11T22:34:09.634Z,43.66
2022-12-11T22:36:38.245Z,43.63
2022-12-11T22:39:06.950Z,43.61
2022-12-11T22:41:38.307Z,44.08
2022-12-11T22:44:06.872Z,43.87
2022-12-11T22:46:35.404Z,43.91
2022-12-11T22:49:05.290Z,43.89
2022-12-11T22:51:33.891Z,43.73
2022-12-11T22:54:02.416Z,43.61
2022-12-11T22:56:30.981Z,43.84
2022-12-11T22:58:59.561Z,43.63
2022-12-11T23:01:29.119Z,44.07
2022-12-11T23:03:57.572Z,44.00
2022-12-11T23:06:27.404Z,43.86
2022-12-11T23:08:59.060Z,44.19
2022-12-11T23:11:29.980Z,43.82
2022-12-11T23:13:58.826Z,43.95
2022-12-11T23:16:28.668Z,43.95
2022-12-11T23:18:58.136Z,43.80
2022-12-11T23:21:28.547Z,44.00
2022-12-11T23:23:58.383Z,44.14
2022-12-11T23:26:29.239Z,44.08
2022-12-11T23:28:59.212Z,43.71
2022-12-11T23:31:28.478Z,44.21
2022-12-11T23:33:56.964Z,44.01
2022-12-11T23:36:26.427Z,43.83
2022-12-11T23:38:56.301Z,43.74
2022-12-11T23:41:24.814Z,43.71
2022-12-11T23:43:53.246Z,43.66
2022-12-11T23:46:23.822Z,43.66
2022-12-11T23:48:53.483Z,43.46
2022-12-11T23:51:23.695Z,43.46
2022-12-11T23:53:53.150Z,43.41
2022-12-11T23:56:25.433Z,43.48
2022-12-11T23:58:54.923Z,43.31
